Time;durP1;ratioP1;P1;durP2;ratioP2;P2;SDS_P1;SDS_P2;PMS_P1;PMS_P2;Temp;Humidity;BMP_temperature;BMP_pressure;BME280_temperature;BME280_humidity;BME280_pressure;Samples;Min_cycle;Max_cycle;Signal;HPM_P1;HPM_P2
2022/10/10 00:00:49;;;;;;;25.55;8.10;;;;;;;10.81;73.21;101330.94;4992063;28;20112;-64
2022/10/10 00:03:17;;;;;;;22.40;7.07;;;;;;;10.72;73.20;101319.06;4991602;28;20046;-65
2022/10/10 00:05:43;;;;;;;17.35;6.35;;;;;;;10.73;73.77;101330.63;4991620;28;20038;-64
2022/10/10 00:08:09;;;;;;;18.23;6.30;;;;;;;10.65;73.46;101320.47;4991919;28;20034;-63
2022/10/10 00:10:35;;;;;;;13.40;5.20;;;;;;;10.61;74.10;101318.13;4990306;28;20030;-64
2022/10/10 00:13:01;;;;;;;8.73;4.57;;;;;;;10.51;73.79;101307.16;4990153;28;20039;-64
2022/10/10 00:15:27;;;;;;;8.68;3.78;;;;;;;10.51;74.54;101309.84;4990584;28;20041;-64
2022/10/10 00:17:52;;;;;;;6.47;2.95;;;;;;;10.32;74.54;101273.75;4991533;28;20101;-64
2022/10/10 00:20:19;;;;;;;4.00;2.67;;;;;;;10.49;74.45;101306.44;4990086;28;20432;-64
2022/10/10 00:22:45;;;;;;;3.53;2.35;;;;;;;10.52;74.34;101303.53;4991101;28;20077;-64
2022/10/10 00:25:11;;;;;;;3.97;2.10;;;;;;;10.42;74.35;101281.00;4991234;28;20030;-64
2022/10/10 00:27:37;;;;;;;5.53;2.00;;;;;;;10.29;74.25;101264.09;4990296;28;20517;-64
2022/10/10 00:30:07;;;;;;;2.92;1.98;;;;;;;10.50;73.99;101297.41;4989971;28;20042;-63
2022/10/10 00:32:33;;;;;;;2.97;2.03;;;;;;;10.49;74.00;101301.09;4991186;28;20107;-64
2022/10/10 00:34:59;;;;;;;7.57;2.05;;;;;;;10.45;74.40;101294.19;4991179;28;20587;-64
2022/10/10 00:37:24;;;;;;;3.10;2.03;;;;;;;10.48;74.20;101309.22;4991315;28;20066;-64
2022/10/10 00:39:49;;;;;;;4.63;2.22;;;;;;;10.38;74.03;101284.88;4991166;28;20030;-63
2022/10/10 00:42:16;;;;;;;4.88;2.25;;;;;;;10.45;74.08;101293.34;4990135;28;20038;-64
2022/10/10 00:44:44;;;;;;;4.43;2.13;;;;;;;10.43;74.48;101290.78;4990912;28;20089;-64
2022/10/10 00:47:09;;;;;;;3.28;1.73;;;;;;;10.26;74.49;101264.34;4989849;28;20081;-64
2022/10/10 00:49:40;;;;;;;3.25;2.10;;;;;;;10.43;74.23;101288.09;4991158;28;20196;-63
2022/10/10 00:52:08;;;;;;;4.45;2.03;;;;;;;10.45;74.10;101278.09;4990939;28;20076;-64
2022/10/10 00:54:35;;;;;;;3.58;1.67;;;;;;;10.48;73.63;101285.94;4991023;28;20022;-64
2022/10/10 00:57:12;;;;;;;6.65;2.30;;;;;;;10.45;73.39;101277.25;4990865;28;20023;-64
2022/10/10 00:59:40;;;;;;;4.72;2.10;;;;;;;10.52;73.39;101289.25;4989559;28;20038;-63
2022/10/10 01:02:05;;;;;;;3.35;1.98;;;;;;;10.52;73.12;101287.44;4990912;28;20054;-75
2022/10/10 01:04:36;;;;;;;3.72;1.92;;;;;;;10.57;73.20;101290.63;4990615;28;20062;-75
2022/10/10 01:07:05;;;;;;;7.65;1.98;;;;;;;10.40;73.08;101256.13;4988800;28;20368;-75
2022/10/10 01:09:32;;;;;;;5.13;2.25;;;;;;;10.51;72.85;101271.47;4990657;28;20094;-75
2022/10/10 01:12:09;;;;;;;5.72;2.25;;;;;;;10.55;72.67;101276.47;4990488;28;20049;-75
2022/10/10 01:14:55;;;;;;;3.25;2.35;;;;;;;10.56;72.78;101275.53;4990802;28;20105;-75
2022/10/10 01:17:31;;;;;;;7.50;2.35;;;;;;;10.56;73.33;101278.22;4989001;28;20022;-75
2022/10/10 01:20:30;;;;;;;2.85;1.88;;;;;;;10.61;72.47;101283.25;4990608;28;20061;-75
2022/10/10 01:23:11;;;;;;;5.25;1.90;;;;;;;10.51;73.08;101264.25;4990135;28;20022;-75
2022/10/10 01:25:39;;;;;;;3.50;2.10;;;;;;;10.60;73.31;101282.38;4990547;28;20034;-75
2022/10/10 01:28:17;;;;;;;3.88;2.05;;;;;;;10.58;73.15;101278.94;4990293;28;20038;-75
2022/10/10 01:30:43;;;;;;;3.17;2.10;;;;;;;10.41;72.95;101247.13;4990266;28;20038;-75
2022/10/10 01:33:20;;;;;;;4.18;1.90;;;;;;;10.50;73.21;101267.03;4990210;28;20083;-75
2022/10/10 01:36:03;;;;;;;2.38;2.13;;;;;;;10.53;73.49;101280.25;4990274;28;20358;-75
2022/10/10 01:38:37;;;;;;;6.93;2.20;;;;;;;10.52;73.74;101270.50;4990409;28;20014;-75
2022/10/10 01:41:09;;;;;;;4.60;2.08;;;;;;;10.55;72.94;101267.59;4990467;28;20489;-75
2022/10/10 01:43:36;;;;;;;3.65;2.40;;;;;;;10.52;73.61;101275.84;4988466;28;20069;-75
2022/10/10 01:46:17;;;;;;;3.85;2.47;;;;;;;10.48;73.77;101274.38;4991092;28;20049;-75
2022/10/10 01:48:46;;;;;;;5.22;2.53;;;;;;;10.45;74.05;101279.94;4990906;28;20034;-75
2022/10/10 01:51:30;;;;;;;4.32;2.30;;;;;;;10.44;74.16;101278.22;4991042;28;20493;-75
2022/10/10 01:54:23;;;;;;;5.05;2.50;;;;;;;10.45;74.23;101277.25;4991098;28;20049;-75
2022/10/10 01:57:26;;;;;;;5.50;2.28;;;;;;;10.41;74.31;101273.94;4989912;28;20046;-75
2022/10/10 01:59:54;;;;;;;3.88;2.47;;;;;;;10.39;74.46;101278.56;4991210;28;20520;-75
2022/10/10 02:02:48;;;;;;;5.10;2.42;;;;;;;10.38;74.62;101278.69;4990861;28;20166;-75
2022/10/10 02:05:16;;;;;;;6.55;3.15;;;;;;;10.36;74.75;101265.38;4989357;28;20019;-75
2022/10/10 02:08:00;;;;;;;4.47;2.35;;;;;;;10.34;74.67;101267.31;4990937;28;20048;-75
2022/10/10 02:10:33;;;;;;;5.60;2.85;;;;;;;10.35;74.94;101274.38;4991046;28;20546;-75
2022/10/10 02:13:01;;;;;;;7.38;2.63;;;;;;;10.33;74.95;101270.97;4991085;28;20089;-74
2022/10/10 02:15:33;;;;;;;4.75;2.70;;;;;;;10.31;75.28;101269.34;4991082;28;20041;-75
2022/10/10 02:18:01;;;;;;;6.30;3.13;;;;;;;10.10;75.13;101233.34;4990869;28;20038;-75
2022/10/10 02:20:29;;;;;;;3.65;2.60;;;;;;;10.27;75.29;101267.84;4990740;28;20034;-75
2022/10/10 02:22:55;;;;;;;4.55;2.17;;;;;;;10.14;75.26;101251.78;4989351;28;20026;-75
2022/10/10 02:25:27;;;;;;;5.90;2.90;;;;;;;10.22;75.50;101261.97;4990669;28;20081;-75
2022/10/10 02:28:04;;;;;;;4.75;2.53;;;;;;;10.15;76.12;101266.03;4991133;28;20487;-75
2022/10/10 02:30:33;;;;;;;5.95;3.15;;;;;;;10.05;76.22;101254.22;4991060;28;20045;-75
2022/10/10 02:33:00;;;;;;;4.43;2.88;;;;;;;10.08;76.33;101265.63;4989477;28;20034;-75
2022/10/10 02:35:30;;;;;;;5.00;3.00;;;;;;;10.05;76.73;101272.97;4989612;28;20441;-75
2022/10/10 02:37:58;;;;;;;5.32;3.55;;;;;;;10.00;76.89;101272.47;4990887;28;20503;-75
2022/10/10 02:40:30;;;;;;;4.72;3.08;;;;;;;10.00;77.03;101283.19;4990860;28;20443;-75
2022/10/10 02:42:59;;;;;;;4.72;2.88;;;;;;;9.83;77.69;101265.59;4990547;28;20144;-75
2022/10/10 02:45:27;;;;;;;4.95;2.97;;;;;;;9.94;77.32;101275.56;4989473;28;20031;-75
2022/10/10 02:47:53;;;;;;;5.43;3.13;;;;;;;9.92;77.35;101264.97;4990735;28;20042;-74
2022/10/10 02:50:20;;;;;;;5.65;3.20;;;;;;;9.91;77.74;101287.38;4990572;28;20061;-75
2022/10/10 02:52:45;;;;;;;6.75;3.00;;;;;;;9.87;77.97;101277.81;4990886;28;20142;-75
2022/10/10 02:55:10;;;;;;;6.03;3.33;;;;;;;9.86;77.75;101276.09;4989517;28;20477;-75
2022/10/10 02:57:36;;;;;;;5.63;3.05;;;;;;;9.84;78.33;101278.03;4990813;28;20362;-75
2022/10/10 03:00:03;;;;;;;4.57;2.60;;;;;;;9.81;78.40;101275.56;4989866;28;20370;-75
2022/10/10 03:02:28;;;;;;;7.78;3.25;;;;;;;9.80;78.78;101273.00;4990546;28;20038;-75
2022/10/10 03:04:54;;;;;;;10.80;3.13;;;;;;;9.74;78.76;101270.75;4990961;28;20053;-64
2022/10/10 03:07:19;;;;;;;5.63;3.40;;;;;;;9.65;78.84;101260.66;4993719;28;20030;-64
2022/10/10 03:09:45;;;;;;;7.35;3.00;;;;;;;9.65;79.32;101269.56;4993783;28;20108;-63
2022/10/10 03:12:10;;;;;;;4.93;3.22;;;;;;;9.66;79.26;101281.97;4992211;28;20037;-64
2022/10/10 03:14:35;;;;;;;6.60;3.08;;;;;;;9.61;79.45;101281.41;4993888;28;20025;-64
2022/10/10 03:17:01;;;;;;;6.53;3.55;;;;;;;9.56;79.44;101283.56;4993667;28;20447;-63
2022/10/10 03:19:26;;;;;;;9.23;3.45;;;;;;;9.51;79.78;101274.97;4992031;28;20033;-64
2022/10/10 03:21:52;;;;;;;7.85;3.85;;;;;;;9.40;80.10;101266.84;4993263;28;20036;-64
2022/10/10 03:24:17;;;;;;;12.13;3.70;;;;;;;9.35;80.41;101276.16;4993889;28;20028;-75
2022/10/10 03:26:43;;;;;;;7.15;3.15;;;;;;;9.23;81.11;101265.28;4994325;28;20043;-75
2022/10/10 03:29:08;;;;;;;4.93;3.25;;;;;;;9.25;81.39;101274.09;4986483;28;20030;-74
2022/10/10 03:31:34;;;;;;;6.05;2.70;;;;;;;9.19;81.33;101273.63;4982352;28;20030;-75
2022/10/10 03:33:59;;;;;;;4.38;3.10;;;;;;;9.20;81.86;101286.91;4981855;28;20033;-75
2022/10/10 03:36:26;;;;;;;5.57;3.67;;;;;;;9.08;82.23;101268.13;4976338;28;20050;-75
2022/10/10 03:38:51;;;;;;;5.32;3.30;;;;;;;9.11;82.76;101273.28;4983344;28;20085;-75
2022/10/10 03:41:16;;;;;;;6.00;3.40;;;;;;;8.87;83.08;101238.31;4986559;28;20034;-75
2022/10/10 03:43:42;;;;;;;6.30;3.40;;;;;;;9.07;83.73;101266.44;4983337;28;20066;-75
2022/10/10 03:46:07;;;;;;;6.03;3.38;;;;;;;9.03;83.94;101256.91;4985899;28;20085;-75
2022/10/10 03:48:33;;;;;;;7.35;3.60;;;;;;;8.96;84.27;101250.22;4979492;28;20018;-75
2022/10/10 03:50:58;;;;;;;6.32;3.53;;;;;;;8.95;84.15;101252.06;4980443;28;20054;-75
2022/10/10 03:53:24;;;;;;;9.43;4.30;;;;;;;9.01;84.77;101266.84;4983378;28;20073;-76
2022/10/10 03:55:49;;;;;;;6.05;3.50;;;;;;;8.96;84.63;101269.81;4986745;28;20558;-76
2022/10/10 03:58:15;;;;;;;7.90;4.75;;;;;;;8.96;84.58;101261.78;4984763;28;20014;-75
2022/10/10 04:00:40;;;;;;;9.32;4.30;;;;;;;8.98;85.04;101278.59;4986671;28;20027;-75
2022/10/10 04:03:06;;;;;;;9.40;4.28;;;;;;;8.95;84.80;101265.44;4983637;28;20029;-75
2022/10/10 04:05:34;;;;;;;6.35;4.03;;;;;;;8.92;85.11;101264.75;4988228;28;20088;-75
2022/10/10 04:07:59;;;;;;;8.05;4.40;;;;;;;8.92;85.05;101270.97;4993482;28;20038;-75
2022/10/10 04:10:25;;;;;;;8.63;4.22;;;;;;;8.90;85.28;101272.88;4993490;28;20031;-75
2022/10/10 04:12:50;;;;;;;7.57;4.70;;;;;;;8.77;85.25;101260.44;4992942;28;20015;-75
2022/10/10 04:15:15;;;;;;;8.95;4.38;;;;;;;8.80;85.39;101273.59;4992814;28;20030;-75
2022/10/10 04:17:41;;;;;;;6.13;4.05;;;;;;;8.79;85.69;101266.53;4992985;28;20042;-75
2022/10/10 04:20:07;;;;;;;6.10;3.90;;;;;;;8.70;85.73;101261.78;4992033;28;20057;-75
2022/10/10 04:22:32;;;;;;;5.40;4.28;;;;;;;8.72;86.39;101271.44;4991933;28;20069;-75
2022/10/10 04:24:58;;;;;;;8.55;4.10;;;;;;;8.62;86.72;101248.91;4993070;28;20485;-75
2022/10/10 04:27:23;;;;;;;6.40;4.25;;;;;;;8.69;86.79;101266.28;4993055;28;20041;-76
2022/10/10 04:29:48;;;;;;;7.30;3.63;;;;;;;8.70;87.01;101275.13;4992671;28;20516;-75
2022/10/10 04:32:14;;;;;;;7.13;4.38;;;;;;;8.57;87.20;101253.69;4991391;28;20026;-75
2022/10/10 04:34:39;;;;;;;7.00;4.07;;;;;;;8.66;87.38;101273.63;4993091;28;20548;-76
2022/10/10 04:37:05;;;;;;;5.50;4.07;;;;;;;8.64;87.25;101272.91;5000320;28;20018;-75
2022/10/10 04:39:30;;;;;;;7.57;3.92;;;;;;;8.61;87.07;101270.41;5011258;28;20560;-75
2022/10/10 04:41:56;;;;;;;6.85;4.28;;;;;;;8.62;87.47;101266.78;5012587;28;20492;-76
2022/10/10 04:44:21;;;;;;;8.57;4.60;;;;;;;8.54;87.56;101248.53;5012244;28;20042;-75
2022/10/10 04:46:46;;;;;;;8.95;4.32;;;;;;;8.61;88.42;101260.56;5012330;28;20113;-75
2022/10/10 04:49:12;;;;;;;7.47;4.00;;;;;;;8.57;87.96;101250.16;4994960;28;20022;-75
2022/10/10 04:51:37;;;;;;;6.55;4.68;;;;;;;8.57;88.12;101261.72;4990532;28;20792;-75
2022/10/10 04:54:03;;;;;;;7.30;4.22;;;;;;;8.63;88.01;101280.03;4991156;28;20053;-75
2022/10/10 04:56:29;;;;;;;8.48;4.07;;;;;;;8.62;88.22;101277.47;4989434;28;20026;-75
2022/10/10 04:58:54;;;;;;;9.32;4.30;;;;;;;8.54;88.06;101263.72;4992333;28;20050;-75
2022/10/10 05:01:20;;;;;;;7.75;3.88;;;;;;;8.51;88.01;101270.13;4990973;28;20457;-75
2022/10/10 05:03:45;;;;;;;6.20;3.95;;;;;;;8.55;88.08;101281.50;4992341;28;20121;-75
2022/10/10 05:06:11;;;;;;;12.40;4.07;;;;;;;8.53;88.32;101286.94;4992527;28;20448;-75
2022/10/10 05:08:36;;;;;;;8.52;4.32;;;;;;;8.45;88.00;101275.03;4992226;28;20026;-75
2022/10/10 05:11:02;;;;;;;11.02;3.63;;;;;;;8.41;88.27;101274.34;4991779;28;20025;-75
2022/10/10 05:13:27;;;;;;;9.63;4.68;;;;;;;8.48;88.93;101286.38;4991993;28;20041;-75
2022/10/10 05:15:53;;;;;;;12.55;5.07;;;;;;;8.37;89.10;101266.63;4992223;28;20037;-75
2022/10/10 05:18:19;;;;;;;10.23;5.20;;;;;;;8.39;89.68;101272.75;4992142;28;20053;-76
2022/10/10 05:20:46;;;;;;;11.48;5.57;;;;;;;8.50;89.65;101286.25;4992366;28;20381;-75
2022/10/10 05:23:13;;;;;;;19.77;5.90;;;;;;;8.52;89.91;101289.72;4991861;28;20033;-75
2022/10/10 05:25:39;;;;;;;13.35;5.95;;;;;;;8.50;90.15;101275.56;4990946;28;20034;-75
2022/10/10 05:28:04;;;;;;;9.90;5.70;;;;;;;8.48;90.40;101269.50;4991585;28;20654;-75
2022/10/10 05:30:30;;;;;;;12.00;5.40;;;;;;;8.63;90.05;101287.19;4992011;28;20038;-75
2022/10/10 05:32:55;;;;;;;17.08;6.03;;;;;;;8.67;90.03;101288.72;4991970;28;20027;-76
2022/10/10 05:35:21;;;;;;;14.15;6.25;;;;;;;8.71;89.84;101290.25;4992106;28;20069;-75
2022/10/10 05:37:46;;;;;;;9.55;6.63;;;;;;;8.76;89.57;101296.16;4990873;28;20046;-76
2022/10/10 05:40:12;;;;;;;11.93;6.40;;;;;;;8.77;89.51;101290.69;4974854;28;20458;-75
2022/10/10 05:42:37;;;;;;;14.10;7.05;;;;;;;8.86;89.40;101298.13;4986263;28;20041;-75
2022/10/10 05:45:03;;;;;;;10.07;6.78;;;;;;;8.89;89.15;101294.38;5007336;28;20042;-75
2022/10/10 05:47:28;;;;;;;13.15;7.03;;;;;;;8.93;88.66;101299.44;4991481;28;20057;-75
2022/10/10 05:49:54;;;;;;;12.43;6.07;;;;;;;9.05;88.30;101297.78;4990395;28;20026;-75
2022/10/10 05:52:19;;;;;;;10.05;5.65;;;;;;;9.09;88.32;101302.81;4991182;28;20080;-75
2022/10/10 05:54:45;;;;;;;18.27;6.43;;;;;;;9.12;88.02;101302.63;4991508;28;20054;-75
2022/10/10 05:57:10;;;;;;;12.48;5.10;;;;;;;9.19;87.67;101301.25;4995712;28;20021;-75
2022/10/10 05:59:35;;;;;;;9.50;5.45;;;;;;;9.17;87.54;101283.59;5002760;28;20044;-75
2022/10/10 06:02:01;;;;;;;11.13;5.32;;;;;;;9.23;86.99;101283.19;5002929;28;20021;-75
2022/10/10 06:04:26;;;;;;;6.97;4.88;;;;;;;9.25;87.02;101281.25;4995587;28;20785;-75
2022/10/10 06:06:52;;;;;;;8.90;5.50;;;;;;;9.39;86.72;101288.34;4993307;28;20092;-75
2022/10/10 06:09:17;;;;;;;7.13;5.35;;;;;;;9.45;86.20;101290.63;4999605;28;20030;-75
2022/10/10 06:11:42;;;;;;;10.77;5.85;;;;;;;9.54;86.08;101296.19;4990834;28;20034;-75
2022/10/10 06:14:08;;;;;;;9.15;5.20;;;;;;;9.61;85.63;101299.34;5003803;28;20053;-75
2022/10/10 06:16:35;;;;;;;12.18;5.38;;;;;;;9.56;84.24;101277.34;5004562;28;20026;-75
2022/10/10 06:19:02;;;;;;;9.25;4.80;;;;;;;9.72;84.25;101294.97;4996657;28;20018;-75
2022/10/10 06:21:27;;;;;;;12.70;5.47;;;;;;;9.81;83.58;101298.81;4990980;28;20077;-75
2022/10/10 06:23:53;;;;;;;13.73;4.78;;;;;;;9.74;83.27;101274.25;4990848;28;20716;-76
2022/10/10 06:26:18;;;;;;;8.85;4.20;;;;;;;9.92;83.02;101286.38;4991193;28;20515;-75
2022/10/10 06:28:44;;;;;;;10.73;4.30;;;;;;;9.98;81.93;101279.75;5007088;28;20075;-75
2022/10/10 06:31:11;;;;;;;13.27;4.18;;;;;;;10.06;81.32;101280.06;4989303;28;20847;-75
2022/10/10 06:33:36;;;;;;;6.75;3.95;;;;;;;10.18;80.67;101284.59;4997768;28;20014;-75
2022/10/10 06:36:05;;;;;;;7.18;3.92;;;;;;;10.27;80.05;101295.53;4998066;28;20050;-75
2022/10/10 06:38:30;;;;;;;6.68;3.65;;;;;;;10.27;79.38;101268.72;5006186;28;20037;-75
2022/10/10 06:41:01;;;;;;;11.88;4.43;;;;;;;10.40;78.85;101280.28;5008696;28;20026;-75
2022/10/10 06:43:27;;;;;;;9.05;3.72;;;;;;;10.50;78.83;101281.31;4981272;28;20085;-75
2022/10/10 06:45:52;;;;;;;7.88;3.90;;;;;;;10.54;78.27;101271.22;4992065;28;20062;-75
2022/10/10 06:48:18;;;;;;;7.40;4.15;;;;;;;10.72;77.38;101281.50;4993215;28;20050;-75
2022/10/10 06:50:54;;;;;;;7.95;3.42;;;;;;;10.84;77.14;101283.25;4991635;28;20041;-75
2022/10/10 06:53:20;;;;;;;5.38;3.80;;;;;;;10.80;76.88;101260.31;4999273;28;20369;-75
2022/10/10 06:55:46;;;;;;;5.65;3.45;;;;;;;11.07;76.49;101286.94;5001506;28;20022;-75
2022/10/10 06:58:13;;;;;;;5.50;3.65;;;;;;;11.15;74.86;101280.00;4992682;28;20050;-75
2022/10/10 07:00:39;;;;;;;7.00;3.40;;;;;;;11.25;73.74;101283.72;4992417;28;20468;-75
2022/10/10 07:03:04;;;;;;;7.65;3.08;;;;;;;11.29;73.39;101266.41;4992591;28;20031;-75
2022/10/10 07:05:30;;;;;;;7.65;3.70;;;;;;;11.49;73.13;101281.00;4992590;28;20092;-75
2022/10/10 07:07:55;;;;;;;9.73;3.35;;;;;;;11.69;71.98;101291.13;4992717;28;20080;-75
2022/10/10 07:10:20;;;;;;;6.75;3.20;;;;;;;11.87;71.45;101288.84;5005789;28;20055;-75
2022/10/10 07:12:46;;;;;;;12.65;3.15;;;;;;;12.15;69.21;101277.66;4994435;28;20549;-75
2022/10/10 07:15:12;;;;;;;4.20;3.28;;;;;;;12.35;68.91;101269.66;4992603;28;20069;-75
2022/10/10 07:17:38;;;;;;;5.57;2.92;;;;;;;12.58;68.18;101247.16;4990990;28;20180;-75
2022/10/10 07:20:04;;;;;;;8.15;3.13;;;;;;;13.06;66.51;101277.31;4991738;28;20026;-75
2022/10/10 07:22:29;;;;;;;10.52;2.80;;;;;;;13.47;64.17;101251.28;4990480;28;20076;-74
2022/10/10 07:24:54;;;;;;;4.18;2.47;;;;;;;13.98;62.78;101251.34;5008256;28;20026;-75
2022/10/10 07:27:20;;;;;;;6.70;2.60;;;;;;;14.71;59.87;101260.06;4991899;28;20040;-75
2022/10/10 07:29:45;;;;;;;10.57;3.47;;;;;;;15.31;57.45;101254.44;4991818;28;20489;-75
2022/10/10 07:32:11;;;;;;;4.90;2.58;;;;;;;16.13;54.60;101244.81;4999942;28;20022;-75
2022/10/10 07:34:36;;;;;;;4.47;2.20;;;;;;;16.87;52.29;101259.19;4990212;28;20054;-75
2022/10/10 07:37:02;;;;;;;5.35;2.63;;;;;;;17.42;50.22;101256.19;4991950;28;20030;-75
2022/10/10 07:39:27;;;;;;;7.40;2.50;;;;;;;18.17;47.59;101258.31;4991539;28;20481;-75
2022/10/10 07:41:53;;;;;;;6.78;2.05;;;;;;;18.54;47.92;101244.47;4980932;28;20033;-75
2022/10/10 07:44:19;;;;;;;6.05;2.13;;;;;;;19.04;45.92;101239.84;4961119;28;1147329;-75
2022/10/10 07:46:44;;;;;;;5.32;2.35;;;;;;;19.40;44.67;101241.31;4994728;28;20053;-75
2022/10/10 07:49:10;;;;;;;4.72;2.40;;;;;;;19.90;44.06;101231.94;4992504;28;20049;-75
2022/10/10 07:51:37;;;;;;;3.47;2.17;;;;;;;20.17;43.18;101236.16;4991909;28;20113;-75
2022/10/10 07:54:03;;;;;;;5.50;2.30;;;;;;;20.67;42.51;101238.56;4992398;28;20022;-75
2022/10/10 07:56:29;;;;;;;7.43;2.60;;;;;;;21.33;41.25;101236.16;4992458;28;20653;-75
2022/10/10 07:58:54;;;;;;;5.18;2.20;;;;;;;21.68;40.13;101235.53;5008936;28;20060;-76
2022/10/10 08:01:20;;;;;;;6.03;2.42;;;;;;;21.71;39.58;101230.56;4991985;28;20038;-76
2022/10/10 08:03:46;;;;;;;5.63;2.20;;;;;;;21.81;38.80;101227.59;4982746;28;20058;-75
2022/10/10 08:06:15;;;;;;;6.03;2.58;;;;;;;21.80;38.79;101234.91;5005189;28;20040;-76
2022/10/10 08:08:42;;;;;;;4.25;2.00;;;;;;;21.14;39.63;101234.75;4994350;28;20030;-76
2022/10/10 08:11:08;;;;;;;4.70;2.08;;;;;;;20.21;41.85;101214.91;4996961;28;20054;-76
2022/10/10 08:13:36;;;;;;;5.05;2.10;;;;;;;19.66;43.43;101234.69;5011013;28;20036;-75
2022/10/10 08:16:03;;;;;;;5.57;1.95;;;;;;;18.98;43.87;101214.19;5000263;28;20537;-76
2022/10/10 08:18:29;;;;;;;3.50;2.20;;;;;;;18.70;45.19;101233.66;4992178;28;20049;-76
2022/10/10 08:21:10;;;;;;;6.47;2.75;;;;;;;18.20;46.43;101246.28;4991357;28;20065;-76
2022/10/10 08:23:36;;;;;;;6.40;2.17;;;;;;;17.68;47.49;101248.13;4992271;28;20430;-75
2022/10/10 08:26:05;;;;;;;3.58;1.95;;;;;;;17.35;48.60;101241.53;4992281;28;20041;-76
2022/10/10 08:28:31;;;;;;;4.43;2.13;;;;;;;17.15;49.35;101242.69;4992336;28;20105;-75
2022/10/10 08:30:57;;;;;;;6.43;2.40;;;;;;;16.89;50.66;101224.63;4992042;28;20241;-75
2022/10/10 08:33:25;;;;;;;6.10;2.35;;;;;;;16.81;50.93;101238.97;4998443;28;20022;-75
2022/10/10 08:35:51;;;;;;;5.78;2.40;;;;;;;16.72;51.36;101242.56;5000812;28;20038;-75
2022/10/10 08:38:17;;;;;;;6.25;2.58;;;;;;;16.59;51.58;101225.81;4983066;28;20599;-76
2022/10/10 08:40:48;;;;;;;6.00;2.45;;;;;;;16.59;51.80;101225.81;4989990;28;20046;-76
2022/10/10 08:43:23;;;;;;;8.80;3.25;;;;;;;16.62;52.27;101228.25;4991339;28;20137;-75
2022/10/10 08:45:51;;;;;;;5.38;3.13;;;;;;;16.60;52.23;101215.84;4992234;28;20040;-76
2022/10/10 08:48:23;;;;;;;4.85;2.60;;;;;;;16.79;52.25;101216.56;4991783;28;20110;-76
2022/10/10 08:50:56;;;;;;;8.27;2.78;;;;;;;17.03;52.08;101210.56;5008001;28;20392;-76
2022/10/10 08:53:33;;;;;;;5.15;2.60;;;;;;;17.77;50.10;101210.03;4991252;28;20025;-76
2022/10/10 08:56:00;;;;;;;8.45;2.35;;;;;;;19.14;47.36;101197.91;4999710;28;20041;-75
2022/10/10 08:58:42;;;;;;;4.93;2.25;;;;;;;20.35;44.05;101197.81;4991694;28;20072;-76
2022/10/10 09:01:14;;;;;;;5.82;2.53;;;;;;;21.35;41.85;101212.25;4995167;28;20087;-75
2022/10/10 09:03:51;;;;;;;6.47;2.38;;;;;;;22.20;39.94;101207.19;4990662;28;20026;-76
2022/10/10 09:06:54;;;;;;;5.13;2.63;;;;;;;22.54;39.11;101205.78;4991458;28;20135;-76
2022/10/10 09:09:38;;;;;;;4.45;2.40;;;;;;;22.79;39.22;101186.13;4991595;28;20034;-76
2022/10/10 09:12:09;;;;;;;;;;;;;;;23.04;38.55;101179.25;4992072;28;20034;-76
2022/10/10 09:15:13;;;;;;;6.53;2.38;;;;;;;23.58;37.68;101191.41;4991211;28;19917;-76
2022/10/10 09:17:43;;;;;;;5.28;2.20;;;;;;;24.44;35.71;101183.59;4969091;28;20158;-76
2022/10/10 09:20:15;;;;;;;8.38;2.45;;;;;;;25.18;34.81;101172.69;4955781;28;20047;-76
2022/10/10 09:23:07;;;;;;;4.32;2.15;;;;;;;26.33;32.62;101172.03;4978285;28;20038;-76
2022/10/10 09:25:37;;;;;;;3.47;1.88;;;;;;;27.37;31.63;101167.97;4988882;28;20037;-76
2022/10/10 09:28:29;;;;;;;5.57;1.80;;;;;;;28.22;29.68;101159.78;4998733;28;20342;-76
2022/10/10 09:30:57;;;;;;;7.57;2.20;;;;;;;29.14;28.82;101184.38;4993501;28;20124;-76
2022/10/10 09:33:38;;;;;;;5.80;2.20;;;;;;;29.44;27.95;101168.59;4997135;28;20474;-76
2022/10/10 09:36:11;;;;;;;4.78;2.25;;;;;;;30.06;27.35;101154.13;5002938;28;20397;-76
2022/10/10 09:38:43;;;;;;;3.28;1.98;;;;;;;30.04;27.34;101175.66;4991803;28;20096;-76
2022/10/10 09:41:20;;;;;;;6.55;2.10;;;;;;;30.55;26.98;101165.50;4987984;28;20034;-76
2022/10/10 09:43:47;;;;;;;5.22;2.78;;;;;;;30.90;26.12;101170.97;4999794;28;20057;-76
2022/10/10 09:46:13;;;;;;;4.07;2.08;;;;;;;30.95;26.10;101168.28;4996916;28;20473;-76
2022/10/10 09:48:41;;;;;;;7.65;3.15;;;;;;;30.27;26.86;101170.97;4990483;28;20030;-76
2022/10/10 09:51:13;;;;;;;5.93;2.30;;;;;;;29.56;27.50;101167.53;4995178;28;20106;-76
2022/10/10 09:53:40;;;;;;;6.93;2.15;;;;;;;29.24;27.98;101170.81;5000520;28;20030;-76
2022/10/10 09:56:13;;;;;;;8.13;2.30;;;;;;;29.40;28.03;101167.38;4988393;28;20022;-76
2022/10/10 09:58:42;;;;;;;4.78;1.98;;;;;;;29.94;27.55;101164.34;4993467;28;20074;-75
2022/10/10 10:01:18;;;;;;;5.60;1.80;;;;;;;30.70;26.89;101165.00;4989825;28;20042;-75
2022/10/10 10:04:06;;;;;;;3.03;1.80;;;;;;;31.71;25.32;101154.75;4987956;28;20629;-77
2022/10/10 10:06:33;;;;;;;5.05;1.90;;;;;;;31.87;25.32;101148.38;4988290;28;20540;-75
2022/10/10 10:09:04;;;;;;;4.07;2.20;;;;;;;32.40;24.77;101143.06;4988926;28;20405;-76
2022/10/10 10:11:38;;;;;;;3.05;1.80;;;;;;;32.00;24.85;101125.81;4983131;28;20174;-76
2022/10/10 10:14:04;;;;;;;3.20;1.70;;;;;;;32.24;24.72;101143.09;4992343;28;20019;-75
2022/10/10 10:16:38;;;;;;;7.82;1.77;;;;;;;32.54;23.99;101147.16;4996256;28;20065;-76
2022/10/10 10:19:06;;;;;;;6.63;2.17;;;;;;;32.15;24.66;101144.63;4990048;28;20027;-76
2022/10/10 10:21:46;;;;;;;4.60;1.60;;;;;;;31.71;25.31;101134.47;4985136;28;20053;-75
2022/10/10 10:24:20;;;;;;;5.45;1.60;;;;;;;31.66;25.01;101142.72;4988130;28;20045;-75
2022/10/10 10:26:47;;;;;;;5.65;1.55;;;;;;;31.09;25.77;101136.44;4987954;28;20081;-76
2022/10/10 10:29:26;;;;;;;3.53;1.70;;;;;;;30.28;26.53;101139.44;4988686;28;20409;-75
2022/10/10 10:31:57;;;;;;;4.35;1.60;;;;;;;29.30;27.92;101142.25;4987742;28;20046;-76
2022/10/10 10:35:06;;;;;;;4.78;1.40;;;;;;;27.90;29.44;101141.66;4992364;28;20061;-75
2022/10/10 10:37:53;;;;;;;5.35;1.95;;;;;;;26.68;30.81;101139.53;4942669;28;20093;-75
2022/10/10 10:40:29;;;;;;;7.80;1.73;;;;;;;25.68;32.42;101131.75;4998085;28;20077;-75
2022/10/10 10:43:16;;;;;;;3.60;2.00;;;;;;;24.49;34.34;101141.84;4986839;28;20043;-75
2022/10/10 10:46:08;;;;;;;4.38;1.98;;;;;;;23.59;35.80;101132.84;4997309;28;20137;-75
2022/10/10 10:48:36;;;;;;;7.63;2.60;;;;;;;23.07;37.07;101134.22;4990863;28;20032;-75
2022/10/10 10:51:18;;;;;;;4.75;2.00;;;;;;;22.36;38.74;101129.59;5011205;28;20124;-75
2022/10/10 10:53:51;;;;;;;5.10;2.15;;;;;;;21.96;39.29;101138.31;4999179;28;20072;-75
2022/10/10 10:56:37;;;;;;;6.78;2.63;;;;;;;21.35;40.65;101131.19;4986825;28;20034;-73
2022/10/10 10:59:35;;;;;;;3.17;1.83;;;;;;;21.01;41.96;101129.97;4987220;28;20385;-75
2022/10/10 11:02:16;;;;;;;4.65;2.05;;;;;;;20.61;42.88;101131.06;4987873;28;20102;-75
2022/10/10 11:05:10;;;;;;;3.83;2.30;;;;;;;20.36;43.63;101132.22;4991955;28;20042;-75
2022/10/10 11:08:14;;;;;;;5.35;2.67;;;;;;;20.27;44.11;101135.16;4982629;28;20043;-75
2022/10/10 11:11:17;;;;;;;5.10;2.53;;;;;;;20.07;44.66;101127.38;4980357;28;20733;-75
2022/10/10 11:14:01;;;;;;;5.95;2.30;;;;;;;19.95;45.21;101125.19;4987708;28;20041;-75
2022/10/10 11:16:34;;;;;;;4.87;2.37;;;;;;;19.85;45.35;101109.09;4983681;28;20030;-75
2022/10/10 11:19:15;;;;;;;5.82;2.25;;;;;;;19.80;45.86;101119.63;4987491;28;20279;-75
2022/10/10 11:21:46;;;;;;;4.57;2.42;;;;;;;19.77;45.97;101111.81;4985326;28;20030;-75
2022/10/10 11:24:29;;;;;;;7.15;2.70;;;;;;;19.66;46.13;101101.31;4987671;28;20125;-75
2022/10/10 11:26:59;;;;;;;6.25;2.60;;;;;;;19.63;46.83;101101.66;4991023;28;20062;-75
2022/10/10 11:29:46;;;;;;;7.15;3.60;;;;;;;19.52;47.25;101088.41;4991493;28;20041;-75
2022/10/10 11:32:19;;;;;;;5.03;2.92;;;;;;;19.40;47.37;101087.06;4991100;28;20044;-75
2022/10/10 11:35:01;;;;;;;11.70;2.88;;;;;;;19.43;47.40;101107.63;4989551;28;20421;-75
2022/10/10 11:37:31;;;;;;;8.13;3.08;;;;;;;19.33;47.43;101093.38;4997212;28;20105;-74
2022/10/10 11:40:02;;;;;;;5.30;3.03;;;;;;;19.30;47.67;101089.13;4997952;28;20077;-75